Time,TemperatureF,DewpointF,PressureIn,WindDirection,WindDirectionDegrees,WindSpeedMPH,WindSpeedGustMPH,Humidity,HourlyPrecipIn,Conditions,Clouds,dailyrainin,SoftwareType,DateUTC
2013-02-03 00:00:00,50.9,43.9,30.17,NW,325,0.0,0.0,77,0.00,,---,0.00,VWS V14.01,2013-02-03 05:00:00,
2013-02-03 00:01:00,51.1,44.1,30.17,NW,325,0.0,0.0,77,0.00,,---,0.00,VWS V14.01,2013-02-03 05:01:00,
2013-02-03 00:06:00,50.7,43.9,30.17,NNW,340,1.2,1.9,77,0.00,,---,0.00,VWS V14.01,2013-02-03 05:06:00,
2013-02-03 00:11:00,50.4,43.7,30.17,NNW,342,1.6,1.7,78,0.00,,---,0.00,VWS V14.01,2013-02-03 05:11:00,
2013-02-03 00:16:00,50.6,43.9,30.16,NNW,345,0.4,0.4,78,0.00,,---,0.00,VWS V14.01,2013-02-03 05:16:00,
2013-02-03 00:21:00,51.4,44.5,30.16,NW,326,0.0,0.0,77,0.00,,---,0.00,VWS V14.01,2013-02-03 05:21:00,
2013-02-03 00:26:00,51.5,44.5,30.17,NNW,338,0.0,0.0,77,0.00,,---,0.00,VWS V14.01,2013-02-03 05:26:00,
2013-02-03 00:31:00,50.5,43.7,30.16,NNW,339,1.3,1.6,77,0.00,,---,0.00,VWS V14.01,2013-02-03 05:31:00,
2013-02-03 00:36:00,50.3,43.6,30.16,NNW,338,0.0,0.0,78,0.00,,---,0.00,VWS V14.01,2013-02-03 05:36:00,
2013-02-03 00:41:00,50.4,43.7,30.16,NNW,338,0.0,0.0,78,0.00,,---,0.00,VWS V14.01,2013-02-03 05:41:00,
2013-02-03 00:46:00,50.8,44.1,30.16,NNW,338,0.0,0.0,78,0.00,,---,0.00,VWS V14.01,2013-02-03 05:46:00,
2013-02-03 00:51:00,50.2,43.5,30.16,NNW,338,0.0,0.0,78,0.00,,---,0.00,VWS V14.01,2013-02-03 05:51:00,
2013-02-03 00:56:00,50.3,43.8,30.16,NNW,338,0.0,0.0,78,0.00,,---,0.00,VWS V14.01,2013-02-03 05:56:00,
2013-02-03 01:01:00,49.9,43.7,30.16,NNW,338,0.0,0.0,79,0.00,,---,0.00,VWS V14.01,2013-02-03 06:01:00,
2013-02-03 01:06:00,49.2,43.0,30.16,NNW,336,0.0,0.0,79,0.00,,---,0.00,VWS V14.01,2013-02-03 06:06:00,
2013-02-03 01:11:00,49.5,43.6,30.15,NNW,336,0.0,0.0,80,0.00,,---,0.00,VWS V14.01,2013-02-03 06:11:00,
2013-02-03 01:16:00,49.4,43.6,30.15,NNW,336,0.0,0.0,80,0.00,,---,0.00,VWS V14.01,2013-02-03 06:16:00,
2013-02-03 01:21:00,48.9,43.3,30.15,NW,312,0.6,0.9,81,0.00,,---,0.00,VWS V14.01,2013-02-03 06:21:00,
2013-02-03 01:26:00,49.1,43.5,30.15,NW,315,2.0,2.0,81,0.00,,---,0.00,VWS V14.01,2013-02-03 06:26:00,
2013-02-03 01:31:00,49.1,43.8,30.15,NW,318,2.4,2.4,82,0.00,,---,0.00,VWS V14.01,2013-02-03 06:31:00,
2013-02-03 01:36:00,48.5,43.1,30.15,West,280,0.3,1.2,82,0.00,,---,0.00,VWS V14.01,2013-02-03 06:36:00,
2013-02-03 01:41:00,48.7,43.3,30.14,NW,316,1.9,2.3,81,0.00,,---,0.00,VWS V14.01,2013-02-03 06:41:00,
2013-02-03 01:46:00,49.2,43.8,30.14,NW,314,1.2,1.8,82,0.00,,---,0.00,VWS V14.01,2013-02-03 06:46:00,
2013-02-03 01:51:00,49.0,43.5,30.14,NW,304,0.0,0.8,81,0.00,,---,0.00,VWS V14.01,2013-02-03 06:51:00,
2013-02-03 01:56:00,49.2,43.8,30.13,NW,304,0.0,0.0,82,0.00,,---,0.00,VWS V14.01,2013-02-03 06:56:00,
2013-02-03 02:01:00,48.5,43.2,30.13,NW,304,0.0,0.0,82,0.00,,---,0.00,VWS V14.01,2013-02-03 07:01:00,
2013-02-03 02:06:00,48.4,43.1,30.13,NW,304,0.0,0.0,82,0.00,,---,0.00,VWS V14.01,2013-02-03 07:06:00,
2013-02-03 02:11:00,48.6,43.4,30.13,NW,304,0.0,0.0,82,0.00,,---,0.00,VWS V14.01,2013-02-03 07:11:00,
2013-02-03 02:16:00,48.5,43.5,30.13,NW,304,0.0,0.0,83,0.00,,---,0.00,VWS V14.01,2013-02-03 07:16:00,
2013-02-03 02:21:00,48.3,43.3,30.13,NW,318,1.7,1.7,83,0.00,,---,0.00,VWS V14.01,2013-02-03 07:21:00,
2013-02-03 02:26:00,47.9,42.9,30.12,NW,314,0.7,0.7,83,0.00,,---,0.00,VWS V14.01,2013-02-03 07:26:00,
2013-02-03 02:31:00,47.6,42.8,30.12,WNW,301,0.0,0.0,83,0.00,,---,0.00,VWS V14.01,2013-02-03 07:31:00,
2013-02-03 02:36:00,47.9,43.2,30.12,WNW,301,0.0,0.0,84,0.00,,---,0.00,VWS V14.01,2013-02-03 07:36:00,
2013-02-03 02:41:00,47.5,43.0,30.12,WNW,301,0.0,0.0,84,0.00,,---,0.00,VWS V14.01,2013-02-03 07:41:00,
2013-02-03 02:46:00,47.5,43.1,30.12,WNW,301,0.0,0.0,84,0.00,,---,0.00,VWS V14.01,2013-02-03 07:46:00,
2013-02-03 02:51:00,47.5,43.3,30.12,WNW,301,0.0,0.0,85,0.00,,---,0.00,VWS V14.01,2013-02-03 07:51:00,
2013-02-03 02:56:00,46.6,42.4,30.12,NW,315,2.9,3.1,85,0.00,,---,0.00,VWS V14.01,2013-02-03 07:56:00,
2013-02-03 03:01:00,47.5,43.3,30.12,NW,314,2.4,2.5,85,0.00,,---,0.00,VWS V14.01,2013-02-03 08:01:00,
2013-02-03 03:06:00,47.1,43.1,30.12,NW,318,3.0,3.0,86,0.00,,---,0.00,VWS V14.01,2013-02-03 08:06:00,
2013-02-03 03:11:00,46.8,43.1,30.12,NW,316,1.6,2.3,87,0.00,,---,0.00,VWS V14.01,2013-02-03 08:11:00,
2013-02-03 03:16:00,47.7,44.2,30.12,NW,316,2.2,2.2,88,0.00,,---,0.00,VWS V14.01,2013-02-03 08:16:00,
2013-02-03 03:21:00,48.1,44.8,30.12,NW,311,1.2,1.5,88,0.00,,---,0.00,VWS V14.01,2013-02-03 08:21:00,
2013-02-03 03:26:00,47.5,44.1,30.12,NW,312,0.0,0.0,88,0.00,,---,0.00,VWS V14.01,2013-02-03 08:26:00,
2013-02-03 03:30:00,47.5,44.0,30.12,NW,325,0.7,1.2,88,0.00,,---,0.00,VWS V14.01,2013-02-03 08:30:00,
2013-02-03 03:35:00,47.3,43.8,30.12,NW,312,2.5,2.9,88,0.00,,---,0.00,VWS V14.01,2013-02-03 08:35:00,
2013-02-03 03:40:00,46.7,43.2,30.12,NW,316,1.7,1.9,88,0.00,,---,0.00,VWS V14.01,2013-02-03 08:40:00,
2013-02-03 03:45:00,47.5,44.1,30.12,NW,316,1.2,1.2,88,0.00,,---,0.00,VWS V14.01,2013-02-03 08:45:00,
2013-02-03 03:50:00,47.5,44.4,30.12,NW,312,2.5,3.7,89,0.00,,---,0.00,VWS V14.01,2013-02-03 08:50:00,
2013-02-03 03:55:00,47.7,44.7,30.13,WNW,285,4.0,5.0,89,0.00,,---,0.00,VWS V14.01,2013-02-03 08:55:00,
2013-02-03 04:00:00,47.9,44.8,30.13,West,278,4.6,5.5,89,0.00,,---,0.00,VWS V14.01,2013-02-03 09:00:00,
2013-02-03 04:05:00,48.1,45.0,30.13,NW,304,3.4,3.5,89,0.00,,---,0.00,VWS V14.01,2013-02-03 09:05:00,
2013-02-03 04:10:00,48.2,44.9,30.13,WNW,290,3.7,4.2,88,0.00,,---,0.00,VWS V14.01,2013-02-03 09:10:00,
2013-02-03 04:15:00,47.7,44.3,30.12,WNW,298,1.8,1.9,88,0.00,,---,0.00,VWS V14.01,2013-02-03 09:15:00,
2013-02-03 04:20:00,47.7,44.0,30.13,WNW,301,2.0,2.2,87,0.00,,---,0.00,VWS V14.01,2013-02-03 09:20:00,
2013-02-03 04:25:00,47.2,43.3,30.13,NW,305,4.5,4.6,86,0.00,,---,0.00,VWS V14.01,2013-02-03 09:25:00,
2013-02-03 04:30:00,47.4,43.5,30.13,NW,308,3.5,3.7,86,0.00,,---,0.00,VWS V14.01,2013-02-03 09:30:00,
2013-02-03 04:35:00,47.4,43.4,30.13,WNW,297,5.0,5.0,86,0.00,,---,0.00,VWS V14.01,2013-02-03 09:35:00,
2013-02-03 04:40:00,47.7,43.6,30.13,WNW,283,2.2,2.2,86,0.00,,---,0.00,VWS V14.01,2013-02-03 09:40:00,
2013-02-03 04:45:00,47.3,43.2,30.13,West,277,1.7,2.3,86,0.00,,---,0.00,VWS V14.01,2013-02-03 09:45:00,
2013-02-03 04:50:00,47.4,43.2,30.13,WNW,287,2.4,5.7,85,0.00,,---,0.00,VWS V14.01,2013-02-03 09:50:00,
2013-02-03 04:55:00,47.2,43.0,30.13,WNW,290,2.7,4.3,85,0.00,,---,0.00,VWS V14.01,2013-02-03 09:55:00,
2013-02-03 05:00:00,46.9,42.7,30.13,NW,307,4.0,6.3,85,0.00,,---,0.00,VWS V14.01,2013-02-03 10:00:00,
2013-02-03 05:05:00,47.0,42.7,30.14,WNW,290,0.0,2.7,85,0.00,,---,0.00,VWS V14.01,2013-02-03 10:05:00,
2013-02-03 05:10:00,47.1,42.7,30.13,WNW,290,0.0,0.0,85,0.00,,---,0.00,VWS V14.01,2013-02-03 10:10:00,
2013-02-03 05:15:00,46.2,41.8,30.13,WNW,290,0.0,0.0,84,0.00,,---,0.00,VWS V14.01,2013-02-03 10:15:00,
2013-02-03 05:20:00,46.1,41.6,30.13,WNW,290,0.0,0.0,84,0.00,,---,0.00,VWS V14.01,2013-02-03 10:20:00,
2013-02-03 05:25:00,46.3,41.7,30.14,NW,325,2.1,3.0,84,0.00,,---,0.00,VWS V14.01,2013-02-03 10:25:00,
2013-02-03 05:30:00,46.2,41.4,30.14,WNW,283,0.0,0.0,83,0.00,,---,0.00,VWS V14.01,2013-02-03 10:30:00,
2013-02-03 05:35:00,46.8,41.8,30.15,NNW,328,1.5,1.9,83,0.00,,---,0.00,VWS V14.01,2013-02-03 10:35:00,
2013-02-03 05:40:00,46.8,41.8,30.15,WNW,300,4.0,5.5,82,0.00,,---,0.00,VWS V14.01,2013-02-03 10:40:00,
2013-02-03 05:45:00,46.6,41.5,30.15,NW,325,0.6,1.0,82,0.00,,---,0.00,VWS V14.01,2013-02-03 10:45:00,
2013-02-03 05:50:00,46.2,41.0,30.15,WNW,301,2.4,3.4,82,0.00,,---,0.00,VWS V14.01,2013-02-03 10:50:00,
2013-02-03 05:55:00,45.9,40.7,30.15,WNW,297,0.0,0.0,82,0.00,,---,0.00,VWS V14.01,2013-02-03 10:55:00,
2013-02-03 06:00:00,45.3,40.2,30.15,WNW,297,0.0,0.0,82,0.00,,---,0.00,VWS V14.01,2013-02-03 11:00:00,
2013-02-03 06:05:00,44.8,39.7,30.15,WNW,297,0.0,0.0,82,0.00,,---,0.00,VWS V14.01,2013-02-03 11:05:00,
2013-02-03 06:10:00,44.4,39.3,30.15,WNW,297,0.0,0.0,82,0.00,,---,0.00,VWS V14.01,2013-02-03 11:10:00,
2013-02-03 06:15:00,45.0,39.9,30.16,WNW,297,0.0,0.0,82,0.00,,---,0.00,VWS V14.01,2013-02-03 11:15:00,
2013-02-03 06:20:00,43.4,38.4,30.16,WNW,297,0.0,0.0,82,0.00,,---,0.00,VWS V14.01,2013-02-03 11:20:00,
2013-02-03 06:25:00,44.0,39.1,30.16,WNW,297,0.0,0.0,83,0.00,,---,0.00,VWS V14.01,2013-02-03 11:25:00,
2013-02-03 06:30:00,43.5,38.7,30.17,WNW,297,0.0,0.0,83,0.00,,---,0.00,VWS V14.01,2013-02-03 11:30:00,
2013-02-03 06:35:00,43.4,38.6,30.16,WNW,297,0.0,0.0,83,0.00,,---,0.00,VWS V14.01,2013-02-03 11:35:00,
2013-02-03 06:40:00,43.1,38.5,30.17,WNW,297,0.0,0.0,84,0.00,,---,0.00,VWS V14.01,2013-02-03 11:40:00,
2013-02-03 06:45:00,43.9,39.1,30.17,WNW,297,0.0,0.0,83,0.00,,---,0.00,VWS V14.01,2013-02-03 11:45:00,
2013-02-03 06:50:00,43.9,39.0,30.17,WNW,297,0.0,0.0,83,0.00,,---,0.00,VWS V14.01,2013-02-03 11:50:00,
2013-02-03 06:55:00,44.0,39.0,30.17,WNW,297,0.0,0.0,82,0.00,,---,0.00,VWS V14.01,2013-02-03 11:55:00,
2013-02-03 07:00:00,43.1,38.0,30.17,WNW,297,0.0,0.0,82,0.00,,---,0.00,VWS V14.01,2013-02-03 12:00:00,
2013-02-03 07:05:00,43.5,38.5,30.17,WNW,297,0.0,0.0,82,0.00,,---,0.00,VWS V14.01,2013-02-03 12:05:00,
2013-02-03 07:10:00,42.7,37.8,30.18,WNW,297,0.0,0.0,83,0.00,,---,0.00,VWS V14.01,2013-02-03 12:10:00,
2013-02-03 07:15:00,42.2,37.5,30.18,WNW,297,0.0,0.0,83,0.00,,---,0.00,VWS V14.01,2013-02-03 12:15:00,
2013-02-03 07:20:00,42.6,38.0,30.18,WNW,297,0.0,0.0,84,0.00,,---,0.00,VWS V14.01,2013-02-03 12:20:00,
2013-02-03 07:25:00,42.6,38.0,30.18,WNW,297,0.0,0.0,84,0.00,,---,0.00,VWS V14.01,2013-02-03 12:25:00,
2013-02-03 07:30:00,42.4,38.0,30.18,WNW,297,0.0,0.0,84,0.00,,---,0.00,VWS V14.01,2013-02-03 12:30:00,
2013-02-03 07:35:00,41.6,37.3,30.18,WNW,297,0.0,0.0,85,0.00,,---,0.00,VWS V14.01,2013-02-03 12:35:00,
2013-02-03 07:40:00,41.1,37.0,30.19,WNW,297,0.0,0.0,85,0.00,,---,0.00,VWS V14.01,2013-02-03 12:40:00,
2013-02-03 07:45:00,42.0,37.9,30.19,WNW,297,0.0,0.0,85,0.00,,---,0.00,VWS V14.01,2013-02-03 12:45:00,
2013-02-03 07:50:00,42.2,38.2,30.19,WNW,297,0.0,0.0,86,0.00,,---,0.00,VWS V14.01,2013-02-03 12:50:00,
2013-02-03 07:55:00,42.5,38.6,30.19,WNW,298,1.5,3.5,86,0.00,,---,0.00,VWS V14.01,2013-02-03 12:55:00,
2013-02-03 08:00:00,43.3,39.0,30.19,North,6,0.8,2.1,84,0.00,,---,0.00,VWS V14.01,2013-02-03 13:00:00,
2013-02-03 08:09:00,44.3,39.4,30.19,North,7,0.4,0.4,83,0.00,,---,0.00,VWS V14.01,2013-02-03 13:09:00,
2013-02-03 08:14:00,44.6,39.5,30.20,North,3,3.6,3.6,82,0.00,,---,0.00,VWS V14.01,2013-02-03 13:14:00,
2013-02-03 08:19:00,45.8,40.6,30.20,North,1,1.1,2.7,82,0.00,,---,0.00,VWS V14.01,2013-02-03 13:19:00,
2013-02-03 08:24:00,46.3,40.7,30.20,North,0,0.0,1.9,81,0.00,,---,0.00,VWS V14.01,2013-02-03 13:24:00,
2013-02-03 08:29:00,46.6,40.8,30.20,North,0,0.0,0.0,80,0.00,,---,0.00,VWS V14.01,2013-02-03 13:29:00,
2013-02-03 08:34:00,47.3,41.2,30.20,North,357,0.0,1.3,79,0.00,,---,0.00,VWS V14.01,2013-02-03 13:34:00,
2013-02-03 08:39:00,47.7,41.3,30.20,North,0,2.7,2.9,78,0.00,,---,0.00,VWS V14.01,2013-02-03 13:39:00,
2013-02-03 08:44:00,48.0,41.4,30.19,North,1,0.7,1.1,78,0.00,,---,0.00,VWS V14.01,2013-02-03 13:44:00,
2013-02-03 08:49:00,48.7,41.9,30.20,North,1,3.1,4.5,77,0.00,,---,0.00,VWS V14.01,2013-02-03 13:49:00,
2013-02-03 08:54:00,49.3,42.2,30.19,North,357,2.3,2.3,76,0.00,,---,0.00,VWS V14.01,2013-02-03 13:54:00,
2013-02-03 08:59:00,49.4,42.0,30.20,North,354,2.9,4.3,76,0.00,,---,0.00,VWS V14.01,2013-02-03 13:59:00,
2013-02-03 09:04:00,51.2,43.7,30.20,North,354,4.5,5.3,76,0.00,,---,0.00,VWS V14.01,2013-02-03 14:04:00,
2013-02-03 09:09:00,51.9,43.9,30.20,NNW,346,1.5,4.6,74,0.00,,---,0.00,VWS V14.01,2013-02-03 14:09:00,
2013-02-03 09:14:00,51.7,43.2,30.20,NNW,339,1.2,3.9,73,0.00,,---,0.00,VWS V14.01,2013-02-03 14:14:00,
2013-02-03 09:19:00,52.6,43.5,30.20,WNW,302,0.9,3.7,71,0.00,,---,0.00,VWS V14.01,2013-02-03 14:19:00,
2013-02-03 09:24:00,53.5,43.6,30.20,WNW,301,3.2,4.2,69,0.00,,---,0.00,VWS V14.01,2013-02-03 14:24:00,
2013-02-03 09:29:00,54.2,43.5,30.20,NNW,346,2.7,3.8,67,0.00,,---,0.00,VWS V14.01,2013-02-03 14:29:00,
2013-02-03 09:34:00,55.1,43.5,30.20,NW,326,5.6,5.8,65,0.00,,---,0.00,VWS V14.01,2013-02-03 14:34:00,
2013-02-03 09:39:00,55.4,43.4,30.20,North,354,2.4,4.4,64,0.00,,---,0.00,VWS V14.01,2013-02-03 14:39:00,
2013-02-03 09:44:00,56.5,44.4,30.19,North,350,2.8,2.8,64,0.00,,---,0.00,VWS V14.01,2013-02-03 14:44:00,
2013-02-03 09:49:00,57.1,44.7,30.19,North,349,3.5,3.6,63,0.00,,---,0.00,VWS V14.01,2013-02-03 14:49:00,
2013-02-03 09:54:00,57.9,45.3,30.19,NNW,346,3.2,4.1,63,0.00,,---,0.00,VWS V14.01,2013-02-03 14:54:00,
2013-02-03 09:59:00,58.4,45.0,30.19,WNW,298,6.1,9.4,61,0.00,,---,0.00,VWS V14.01,2013-02-03 14:59:00,
2013-02-03 10:04:00,59.2,45.6,30.19,NW,308,2.8,3.2,61,0.00,,---,0.00,VWS V14.01,2013-02-03 15:04:00,
2013-02-03 10:09:00,59.7,45.5,30.19,NW,319,3.6,7.3,59,0.00,,---,0.00,VWS V14.01,2013-02-03 15:09:00,
2013-02-03 10:14:00,60.0,45.4,30.19,WNW,298,1.4,4.8,58,0.00,,---,0.00,VWS V14.01,2013-02-03 15:14:00,
2013-02-03 10:19:00,61.2,46.5,30.19,North,3,3.9,6.2,58,0.00,,---,0.00,VWS V14.01,2013-02-03 15:19:00,
2013-02-03 10:24:00,60.4,44.9,30.19,WNW,290,6.7,7.0,57,0.00,,---,0.00,VWS V14.01,2013-02-03 15:24:00,
2013-02-03 10:29:00,61.3,45.2,30.19,WNW,300,7.1,8.8,55,0.00,,---,0.00,VWS V14.01,2013-02-03 15:29:00,
2013-02-03 10:34:00,61.3,44.7,30.19,WSW,246,3.1,5.5,54,0.00,,---,0.00,VWS V14.01,2013-02-03 15:34:00,
2013-02-03 10:38:00,61.4,44.7,30.19,NW,321,7.8,8.0,54,0.00,,---,0.00,VWS V14.01,2013-02-03 15:38:00,
2013-02-03 10:43:00,61.4,44.8,30.19,NW,304,3.5,3.6,54,0.00,,---,0.00,VWS V14.01,2013-02-03 15:43:00,
2013-02-03 10:48:00,61.8,45.0,30.19,NW,316,4.2,4.2,54,0.00,,---,0.00,VWS V14.01,2013-02-03 15:48:00,
2013-02-03 10:53:00,62.5,45.1,30.18,WNW,291,8.4,8.7,53,0.00,,---,0.00,VWS V14.01,2013-02-03 15:53:00,
2013-02-03 10:58:00,63.3,46.4,30.18,NNW,342,3.7,5.1,54,0.00,,---,0.00,VWS V14.01,2013-02-03 15:58:00,
2013-02-03 11:03:00,64.2,47.9,30.18,North,349,7.3,9.1,55,0.00,,---,0.00,VWS V14.01,2013-02-03 16:03:00,
2013-02-03 11:08:00,64.0,47.4,30.18,NNW,346,11.2,11.2,55,0.00,,---,0.00,VWS V14.01,2013-02-03 16:08:00,
2013-02-03 11:13:00,64.7,48.3,30.18,NW,326,10.6,11.0,55,0.00,,---,0.00,VWS V14.01,2013-02-03 16:13:00,
2013-02-03 11:18:00,64.7,47.5,30.18,NNW,336,7.6,7.7,54,0.00,,---,0.00,VWS V14.01,2013-02-03 16:18:00,
2013-02-03 11:23:00,64.6,47.7,30.18,NNW,335,11.6,11.8,54,0.00,,---,0.00,VWS V14.01,2013-02-03 16:23:00,
2013-02-03 11:28:00,64.6,47.5,30.18,NNW,342,8.9,14.4,54,0.00,,---,0.00,VWS V14.01,2013-02-03 16:28:00,
2013-02-03 11:33:00,65.9,48.3,30.18,NNW,329,7.0,9.6,53,0.00,,---,0.00,VWS V14.01,2013-02-03 16:33:00,
2013-02-03 11:38:00,65.3,47.5,30.18,West,277,9.3,9.9,52,0.00,,---,0.00,VWS V14.01,2013-02-03 16:38:00,
2013-02-03 11:43:00,65.7,48.0,30.18,WNW,288,8.6,13.9,53,0.00,,---,0.00,VWS V14.01,2013-02-03 16:43:00,
2013-02-03 11:48:00,65.6,48.5,30.17,WNW,298,5.4,5.8,54,0.00,,---,0.00,VWS V14.01,2013-02-03 16:48:00,
2013-02-03 11:53:00,65.3,48.1,30.17,WNW,285,10.3,10.3,54,0.00,,---,0.00,VWS V14.01,2013-02-03 16:53:00,
2013-02-03 11:58:00,65.6,48.5,30.17,NW,312,8.9,9.4,54,0.00,,---,0.00,VWS V14.01,2013-02-03 16:58:00,
2013-02-03 12:03:00,66.0,48.5,30.17,West,259,4.9,4.9,53,0.00,,---,0.00,VWS V14.01,2013-02-03 17:03:00,
2013-02-03 12:08:00,66.4,49.1,30.16,NNW,333,6.5,6.5,54,0.00,,---,0.00,VWS V14.01,2013-02-03 17:08:00,
2013-02-03 12:13:00,66.0,48.5,30.16,WNW,288,10.8,11.2,53,0.00,,---,0.00,VWS V14.01,2013-02-03 17:13:00,
2013-02-03 12:18:00,66.3,48.2,30.16,WNW,298,6.6,12.2,52,0.00,,---,0.00,VWS V14.01,2013-02-03 17:18:00,
2013-02-03 12:23:00,68.1,49.7,30.15,WNW,300,2.2,3.2,52,0.00,,---,0.00,VWS V14.01,2013-02-03 17:23:00,
2013-02-03 12:28:00,68.4,48.9,30.15,WSW,246,6.4,8.9,50,0.00,,---,0.00,VWS V14.01,2013-02-03 17:28:00,
2013-02-03 12:33:00,68.4,49.3,30.15,WNW,287,7.2,7.5,50,0.00,,---,0.00,VWS V14.01,2013-02-03 17:33:00,
2013-02-03 12:38:00,68.1,49.2,30.15,NW,318,9.0,10.4,51,0.00,,---,0.00,VWS V14.01,2013-02-03 17:38:00,
2013-02-03 12:43:00,67.4,49.3,30.15,WSW,257,0.2,6.7,52,0.00,,---,0.00,VWS V14.01,2013-02-03 17:43:00,
2013-02-03 12:48:00,67.8,49.2,30.14,NW,312,7.3,9.6,51,0.00,,---,0.00,VWS V14.01,2013-02-03 17:48:00,
2013-02-03 12:53:00,67.7,49.2,30.14,West,266,4.5,8.0,52,0.00,,---,0.00,VWS V14.01,2013-02-03 17:53:00,
2013-02-03 12:58:00,67.9,49.3,30.14,WNW,283,6.5,10.3,51,0.00,,---,0.00,VWS V14.01,2013-02-03 17:58:00,
2013-02-03 13:03:00,67.7,48.8,30.13,WNW,298,3.0,3.0,51,0.00,,---,0.00,VWS V14.01,2013-02-03 18:03:00,
2013-02-03 13:08:00,68.0,48.8,30.13,West,269,8.8,8.9,50,0.00,,---,0.00,VWS V14.01,2013-02-03 18:08:00,
2013-02-03 13:13:00,68.0,48.9,30.12,West,276,8.1,8.1,50,0.00,,---,0.00,VWS V14.01,2013-02-03 18:13:00,
2013-02-03 13:18:00,67.7,48.6,30.12,WSW,245,7.3,7.3,50,0.00,,---,0.00,VWS V14.01,2013-02-03 18:18:00,
2013-02-03 13:23:00,67.4,48.0,30.12,WNW,302,10.3,11.5,50,0.00,,---,0.00,VWS V14.01,2013-02-03 18:23:00,
2013-02-03 13:28:00,68.2,49.0,30.11,North,349,4.5,4.5,50,0.00,,---,0.00,VWS V14.01,2013-02-03 18:28:00,
2013-02-03 13:33:00,68.3,48.8,30.11,North,354,7.6,12.7,50,0.00,,---,0.00,VWS V14.01,2013-02-03 18:33:00,
2013-02-03 13:38:00,68.3,47.6,30.11,NW,304,7.6,10.6,48,0.00,,---,0.00,VWS V14.01,2013-02-03 18:38:00,
2013-02-03 13:43:00,68.4,47.2,30.11,NW,325,6.5,11.1,47,0.00,,---,0.00,VWS V14.01,2013-02-03 18:43:00,
2013-02-03 13:48:00,69.4,48.2,30.10,WNW,287,6.7,10.1,47,0.00,,---,0.00,VWS V14.01,2013-02-03 18:48:00,
2013-02-03 13:53:00,69.5,48.1,30.10,WNW,294,4.8,7.8,46,0.00,,---,0.00,VWS V14.01,2013-02-03 18:53:00,
2013-02-03 13:58:00,69.0,47.1,30.10,WSW,245,9.1,11.1,46,0.00,,---,0.00,VWS V14.01,2013-02-03 18:58:00,
2013-02-03 14:03:00,69.6,47.9,30.10,WSW,238,7.8,11.2,46,0.00,,---,0.00,VWS V14.01,2013-02-03 19:03:00,
2013-02-03 14:08:00,69.4,46.9,30.10,West,270,11.2,14.1,45,0.00,,---,0.00,VWS V14.01,2013-02-03 19:08:00,
2013-02-03 14:13:00,69.6,48.2,30.10,NW,309,0.0,8.6,46,0.00,,---,0.00,VWS V14.01,2013-02-03 19:13:00,
2013-02-03 14:18:00,70.0,47.8,30.10,WSW,249,7.5,12.0,45,0.00,,---,0.00,VWS V14.01,2013-02-03 19:18:00,
2013-02-03 14:23:00,69.9,47.7,30.10,SSW,212,7.7,11.0,45,0.00,,---,0.00,VWS V14.01,2013-02-03 19:23:00,
2013-02-03 14:28:00,70.0,47.2,30.09,West,274,7.8,8.9,44,0.00,,---,0.00,VWS V14.01,2013-02-03 19:28:00,
2013-02-03 14:33:00,70.1,47.5,30.09,WNW,285,5.8,9.8,44,0.00,,---,0.00,VWS V14.01,2013-02-03 19:33:00,
2013-02-03 14:38:00,69.8,46.3,30.09,North,7,2.1,13.5,43,0.00,,---,0.00,VWS V14.01,2013-02-03 19:38:00,
2013-02-03 14:43:00,69.9,46.8,30.09,WNW,300,4.3,7.2,44,0.00,,---,0.00,VWS V14.01,2013-02-03 19:43:00,
2013-02-03 14:48:00,69.5,46.3,30.09,WNW,301,6.0,8.2,43,0.00,,---,0.00,VWS V14.01,2013-02-03 19:48:00,
2013-02-03 14:53:00,69.4,46.0,30.09,NW,314,7.3,9.8,43,0.00,,---,0.00,VWS V14.01,2013-02-03 19:53:00,
2013-02-03 14:58:00,69.8,46.1,30.09,West,264,8.9,11.2,43,0.00,,---,0.00,VWS V14.01,2013-02-03 19:58:00,
2013-02-03 15:03:00,70.1,46.5,30.09,NW,304,5.4,7.1,43,0.00,,---,0.00,VWS V14.01,2013-02-03 20:03:00,
2013-02-03 15:08:00,69.7,45.0,30.09,WSW,256,10.4,11.5,41,0.00,,---,0.00,VWS V14.01,2013-02-03 20:08:00,
2013-02-03 15:13:00,69.5,44.8,30.08,WNW,297,5.5,9.8,41,0.00,,---,0.00,VWS V14.01,2013-02-03 20:13:00,
2013-02-03 15:18:00,69.4,44.7,30.08,NNW,333,9.3,9.8,41,0.00,,---,0.00,VWS V14.01,2013-02-03 20:18:00,
2013-02-03 15:23:00,69.5,44.5,30.08,WNW,294,4.6,7.9,40,0.00,,---,0.00,VWS V14.01,2013-02-03 20:23:00,
2013-02-03 15:28:00,69.2,43.8,30.08,NNW,328,5.4,11.9,40,0.00,,---,0.00,VWS V14.01,2013-02-03 20:28:00,
2013-02-03 15:33:00,69.5,44.5,30.08,NW,323,2.4,2.9,41,0.00,,---,0.00,VWS V14.01,2013-02-03 20:33:00,
2013-02-03 15:38:00,70.5,44.4,30.08,WNW,300,7.0,8.0,39,0.00,,---,0.00,VWS V14.01,2013-02-03 20:38:00,
2013-02-03 15:43:00,70.3,44.2,30.08,West,259,5.3,9.1,39,0.00,,---,0.00,VWS V14.01,2013-02-03 20:43:00,
2013-02-03 15:48:00,70.0,44.1,30.08,North,352,8.4,11.1,39,0.00,,---,0.00,VWS V14.01,2013-02-03 20:48:00,
2013-02-03 15:53:00,69.4,43.3,30.08,WSW,256,9.1,9.4,39,0.00,,---,0.00,VWS V14.01,2013-02-03 20:53:00,
2013-02-03 15:58:00,69.5,43.3,30.08,West,281,8.8,9.3,39,0.00,,---,0.00,VWS V14.01,2013-02-03 20:58:00,
2013-02-03 16:03:00,69.4,43.3,30.07,NW,326,2.4,6.6,39,0.00,,---,0.00,VWS V14.01,2013-02-03 21:03:00,
2013-02-03 16:08:00,70.4,43.3,30.08,WNW,295,6.4,7.5,38,0.00,,---,0.00,VWS V14.01,2013-02-03 21:08:00,
2013-02-03 16:13:00,69.8,42.8,30.08,West,269,3.9,8.3,38,0.00,,---,0.00,VWS V14.01,2013-02-03 21:13:00,
2013-02-03 16:18:00,69.9,42.6,30.07,West,267,5.3,7.1,37,0.00,,---,0.00,VWS V14.01,2013-02-03 21:18:00,
2013-02-03 16:23:00,70.2,42.7,30.07,WNW,297,2.9,6.6,37,0.00,,---,0.00,VWS V14.01,2013-02-03 21:23:00,
2013-02-03 16:28:00,69.5,41.5,30.07,NNW,345,3.6,7.3,36,0.00,,---,0.00,VWS V14.01,2013-02-03 21:28:00,
2013-02-03 16:33:00,70.0,42.1,30.07,WNW,301,0.9,4.4,36,0.00,,---,0.00,VWS V14.01,2013-02-03 21:33:00,
2013-02-03 16:38:00,70.4,42.3,30.06,WNW,291,3.4,8.2,36,0.00,,---,0.00,VWS V14.01,2013-02-03 21:38:00,
2013-02-03 16:43:00,70.4,42.1,30.07,NW,314,4.2,5.3,36,0.00,,---,0.00,VWS V14.01,2013-02-03 21:43:00,
2013-02-03 16:48:00,69.9,41.5,30.07,West,267,7.1,7.1,36,0.00,,---,0.00,VWS V14.01,2013-02-03 21:48:00,
2013-02-03 16:53:00,70.1,41.9,30.07,West,259,5.2,8.8,36,0.00,,---,0.00,VWS V14.01,2013-02-03 21:53:00,
2013-02-03 16:58:00,70.1,41.4,30.07,NNW,343,3.4,4.8,35,0.00,,---,0.00,VWS V14.01,2013-02-03 21:58:00,
2013-02-03 17:03:00,69.5,40.6,30.07,NW,322,6.5,9.9,35,0.00,,---,0.00,VWS V14.01,2013-02-03 22:03:00,
2013-02-03 17:08:00,69.1,41.0,30.07,WNW,298,4.5,6.6,36,0.00,,---,0.00,VWS V14.01,2013-02-03 22:08:00,
2013-02-03 17:13:00,69.1,41.2,30.07,NW,325,5.2,5.2,36,0.00,,---,0.00,VWS V14.01,2013-02-03 22:13:00,
2013-02-03 17:18:00,69.0,41.2,30.07,North,354,7.1,9.6,36,0.00,,---,0.00,VWS V14.01,2013-02-03 22:18:00,
2013-02-03 17:23:00,68.8,41.4,30.07,NW,325,1.4,3.2,37,0.00,,---,0.00,VWS V14.01,2013-02-03 22:23:00,
2013-02-03 17:28:00,68.9,41.9,30.07,NW,321,2.1,4.6,37,0.00,,---,0.00,VWS V14.01,2013-02-03 22:28:00,
2013-02-03 17:33:00,68.6,41.6,30.07,West,270,2.6,5.5,37,0.00,,---,0.00,VWS V14.01,2013-02-03 22:33:00,
2013-02-03 17:38:00,68.6,40.8,30.07,West,264,5.5,5.7,36,0.00,,---,0.00,VWS V14.01,2013-02-03 22:38:00,
2013-02-03 17:43:00,68.8,40.7,30.07,WSW,250,3.2,5.6,36,0.00,,---,0.00,VWS V14.01,2013-02-03 22:43:00,
2013-02-03 17:48:00,68.3,40.4,30.07,West,264,7.1,8.7,36,0.00,,---,0.00,VWS V14.01,2013-02-03 22:48:00,
2013-02-03 17:53:00,68.3,40.8,30.07,SW,225,2.3,5.2,37,0.00,,---,0.00,VWS V14.01,2013-02-03 22:53:00,
2013-02-03 17:58:00,67.5,40.7,30.07,WNW,283,2.1,2.9,38,0.00,,---,0.00,VWS V14.01,2013-02-03 22:58:00,
2013-02-03 18:03:00,67.2,40.8,30.07,SW,235,3.8,4.2,38,0.00,,---,0.00,VWS V14.01,2013-02-03 23:03:00,
2013-02-03 18:08:00,66.9,40.9,30.07,West,259,5.1,5.5,39,0.00,,---,0.00,VWS V14.01,2013-02-03 23:08:00,
2013-02-03 18:13:00,66.3,40.4,30.07,West,260,5.9,5.9,39,0.00,,---,0.00,VWS V14.01,2013-02-03 23:13:00,
2013-02-03 18:18:00,66.1,40.3,30.08,WSW,246,2.9,5.3,39,0.00,,---,0.00,VWS V14.01,2013-02-03 23:18:00,
2013-02-03 18:23:00,65.8,40.5,30.08,WSW,246,1.5,5.8,40,0.00,,---,0.00,VWS V14.01,2013-02-03 23:23:00,
2013-02-03 18:28:00,64.9,39.8,30.08,SW,228,6.2,8.6,40,0.00,,---,0.00,VWS V14.01,2013-02-03 23:28:00,
2013-02-03 18:33:00,65.0,39.5,30.08,WNW,283,5.2,8.4,39,0.00,,---,0.00,VWS V14.01,2013-02-03 23:33:00,
2013-02-03 18:38:00,64.6,39.2,30.08,West,277,3.2,7.4,39,0.00,,---,0.00,VWS V14.01,2013-02-03 23:38:00,
2013-02-03 18:43:00,64.7,39.7,30.08,West,266,0.0,1.1,40,0.00,,---,0.00,VWS V14.01,2013-02-03 23:43:00,
2013-02-03 18:48:00,64.1,39.6,30.08,SW,228,6.5,7.2,40,0.00,,---,0.00,VWS V14.01,2013-02-03 23:48:00,
2013-02-03 18:53:00,63.2,38.9,30.08,WSW,257,5.7,9.2,41,0.00,,---,0.00,VWS V14.01,2013-02-03 23:53:00,
2013-02-03 18:58:00,63.9,39.8,30.08,WSW,255,5.7,6.7,41,0.00,,---,0.00,VWS V14.01,2013-02-03 23:58:00,
2013-02-03 19:03:00,63.6,39.8,30.08,West,263,6.8,8.5,42,0.00,,---,0.00,VWS V14.01,2013-02-04 00:03:00,
2013-02-03 19:08:00,63.2,39.5,30.09,West,264,5.2,7.8,42,0.00,,---,0.00,VWS V14.01,2013-02-04 00:08:00,
2013-02-03 19:13:00,63.0,39.8,30.08,WSW,253,1.0,3.8,42,0.00,,---,0.00,VWS V14.01,2013-02-04 00:13:00,
2013-02-03 19:18:00,62.5,39.8,30.09,West,260,0.0,2.1,43,0.00,,---,0.00,VWS V14.01,2013-02-04 00:18:00,
2013-02-03 19:23:00,61.2,38.2,30.09,SW,231,6.0,12.1,42,0.00,,---,0.00,VWS V14.01,2013-02-04 00:23:00,
2013-02-03 19:28:00,61.9,38.3,30.09,West,259,1.1,5.0,42,0.00,,---,0.00,VWS V14.01,2013-02-04 00:28:00,
2013-02-03 19:33:00,61.9,37.8,30.09,SW,231,2.7,5.5,41,0.00,,---,0.00,VWS V14.01,2013-02-04 00:33:00,
2013-02-03 19:38:00,62.0,37.6,30.09,WSW,257,4.6,5.3,40,0.00,,---,0.00,VWS V14.01,2013-02-04 00:38:00,
2013-02-03 19:43:00,61.9,37.5,30.09,West,269,2.5,5.0,40,0.00,,---,0.00,VWS V14.01,2013-02-04 00:43:00,
2013-02-03 19:48:00,61.2,36.6,30.10,WSW,253,7.2,8.6,40,0.00,,---,0.00,VWS V14.01,2013-02-04 00:48:00,
2013-02-03 19:53:00,61.3,36.8,30.10,West,266,4.1,8.0,40,0.00,,---,0.00,VWS V14.01,2013-02-04 00:53:00,
2013-02-03 19:58:00,60.8,36.6,30.10,West,273,1.8,5.9,40,0.00,,---,0.00,VWS V14.01,2013-02-04 00:58:00,
2013-02-03 20:03:00,60.3,36.2,30.10,SSW,211,3.8,9.7,40,0.00,,---,0.00,VWS V14.01,2013-02-04 01:03:00,
2013-02-03 20:08:00,60.5,36.5,30.10,WSW,253,4.3,5.4,41,0.00,,---,0.00,VWS V14.01,2013-02-04 01:08:00,
2013-02-03 20:13:00,60.4,36.5,30.10,SW,222,2.8,6.8,41,0.00,,---,0.00,VWS V14.01,2013-02-04 01:13:00,
2013-02-03 20:18:00,60.1,36.2,30.10,WSW,248,5.2,6.6,41,0.00,,---,0.00,VWS V14.01,2013-02-04 01:18:00,
2013-02-03 20:23:00,59.5,36.0,30.11,WSW,248,1.1,5.4,41,0.00,,---,0.00,VWS V14.01,2013-02-04 01:23:00,
2013-02-03 20:28:00,59.4,36.1,30.11,WSW,252,3.0,4.5,42,0.00,,---,0.00,VWS V14.01,2013-02-04 01:28:00,
2013-02-03 20:33:00,59.5,36.2,30.11,SW,228,1.3,8.5,42,0.00,,---,0.00,VWS V14.01,2013-02-04 01:33:00,
2013-02-03 20:38:00,58.8,35.7,30.11,WSW,242,1.2,3.9,42,0.00,,---,0.00,VWS V14.01,2013-02-04 01:38:00,
2013-02-03 20:43:00,59.3,36.3,30.11,West,271,2.2,7.4,42,0.00,,---,0.00,VWS V14.01,2013-02-04 01:43:00,
2013-02-03 20:48:00,58.7,35.9,30.11,WSW,249,0.8,4.2,42,0.00,,---,0.00,VWS V14.01,2013-02-04 01:48:00,
2013-02-03 20:53:00,58.4,35.9,30.12,WSW,257,1.2,4.8,43,0.00,,---,0.00,VWS V14.01,2013-02-04 01:53:00,
2013-02-03 20:58:00,57.7,35.6,30.11,West,266,0.0,2.2,43,0.00,,---,0.00,VWS V14.01,2013-02-04 01:58:00,
2013-02-03 21:03:00,58.0,36.3,30.11,WSW,252,0.0,3.2,44,0.00,,---,0.00,VWS V14.01,2013-02-04 02:03:00,
2013-02-03 21:08:00,57.5,36.6,30.12,West,270,5.8,6.1,45,0.00,,---,0.00,VWS V14.01,2013-02-04 02:08:00,
2013-02-03 21:13:00,56.8,36.5,30.12,SW,233,1.7,4.3,46,0.00,,---,0.00,VWS V14.01,2013-02-04 02:13:00,
2013-02-03 21:18:00,57.3,37.3,30.12,West,266,5.3,5.3,47,0.00,,---,0.00,VWS V14.01,2013-02-04 02:18:00,
2013-02-03 21:23:00,56.9,37.5,30.12,WSW,253,5.0,8.3,48,0.00,,---,0.00,VWS V14.01,2013-02-04 02:23:00,
2013-02-03 21:28:00,57.2,38.0,30.12,West,271,1.1,4.7,48,0.00,,---,0.00,VWS V14.01,2013-02-04 02:28:00,
2013-02-03 21:33:00,56.9,38.0,30.12,NW,311,5.0,7.4,49,0.00,,---,0.00,VWS V14.01,2013-02-04 02:33:00,
2013-02-03 21:38:00,56.3,37.7,30.12,West,278,4.8,7.8,50,0.00,,---,0.00,VWS V14.01,2013-02-04 02:38:00,
2013-02-03 21:43:00,56.2,37.8,30.12,West,271,3.5,9.6,50,0.00,,---,0.00,VWS V14.01,2013-02-04 02:43:00,
2013-02-03 21:48:00,56.4,38.3,30.12,WSW,252,4.1,8.2,50,0.00,,---,0.00,VWS V14.01,2013-02-04 02:48:00,
2013-02-03 21:53:00,56.1,38.6,30.12,WNW,298,2.8,4.8,52,0.00,,---,0.00,VWS V14.01,2013-02-04 02:53:00,
2013-02-03 21:58:00,55.7,38.8,30.12,WNW,287,0.7,3.9,53,0.00,,---,0.00,VWS V14.01,2013-02-04 02:58:00,
2013-02-03 22:03:00,55.4,39.0,30.12,West,271,0.0,1.9,54,0.00,,---,0.00,VWS V14.01,2013-02-04 03:03:00,
2013-02-03 22:08:00,55.4,39.2,30.12,WNW,287,0.0,1.6,54,0.00,,---,0.00,VWS V14.01,2013-02-04 03:08:00,
2013-02-03 22:13:00,54.7,39.1,30.12,WNW,294,3.0,5.2,56,0.00,,---,0.00,VWS V14.01,2013-02-04 03:13:00,
2013-02-03 22:18:00,55.1,39.9,30.12,West,273,2.9,4.9,56,0.00,,---,0.00,VWS V14.01,2013-02-04 03:18:00,
2013-02-03 22:23:00,54.9,40.0,30.12,WNW,290,5.3,5.3,57,0.00,,---,0.00,VWS V14.01,2013-02-04 03:23:00,
2013-02-03 22:28:00,54.1,39.4,30.12,WNW,284,4.3,5.4,58,0.00,,---,0.00,VWS V14.01,2013-02-04 03:28:00,
2013-02-03 22:33:00,54.3,39.8,30.13,WSW,252,0.0,4.0,58,0.00,,---,0.00,VWS V14.01,2013-02-04 03:33:00,
2013-02-03 22:38:00,54.0,39.8,30.12,WNW,302,5.7,6.7,58,0.00,,---,0.00,VWS V14.01,2013-02-04 03:38:00,
2013-02-03 22:43:00,54.6,40.7,30.13,WSW,252,2.1,6.2,59,0.00,,---,0.00,VWS V14.01,2013-02-04 03:43:00,
2013-02-03 22:48:00,53.5,39.8,30.13,WSW,255,2.0,2.3,60,0.00,,---,0.00,VWS V14.01,2013-02-04 03:48:00,
2013-02-03 22:53:00,54.3,40.9,30.13,West,266,3.3,4.8,60,0.00,,---,0.00,VWS V14.01,2013-02-04 03:53:00,
2013-02-03 22:58:00,53.6,40.6,30.13,WSW,242,0.2,3.2,61,0.00,,---,0.00,VWS V14.01,2013-02-04 03:58:00,
2013-02-03 23:03:00,53.5,40.7,30.12,West,278,2.6,5.8,62,0.00,,---,0.00,VWS V14.01,2013-02-04 04:03:00,
2013-02-03 23:08:00,53.5,40.9,30.13,West,260,1.4,4.4,62,0.00,,---,0.00,VWS V14.01,2013-02-04 04:08:00,
2013-02-03 23:13:00,53.5,41.0,30.13,WSW,257,1.1,3.0,62,0.00,,---,0.00,VWS V14.01,2013-02-04 04:13:00,
2013-02-03 23:18:00,53.3,41.0,30.13,NW,321,3.9,4.1,63,0.00,,---,0.00,VWS V14.01,2013-02-04 04:18:00,
2013-02-03 23:23:00,53.3,41.2,30.12,West,276,0.0,1.5,63,0.00,,---,0.00,VWS V14.01,2013-02-04 04:23:00,
2013-02-03 23:28:00,53.4,41.5,30.12,West,276,0.0,0.0,64,0.00,,---,0.00,VWS V14.01,2013-02-04 04:28:00,
2013-02-03 23:33:00,53.1,41.5,30.12,West,280,1.6,3.9,65,0.00,,---,0.00,VWS V14.01,2013-02-04 04:33:00,
2013-02-03 23:38:00,53.1,41.7,30.12,West,266,2.4,3.5,65,0.00,,---,0.00,VWS V14.01,2013-02-04 04:38:00,
2013-02-03 23:43:00,52.8,41.8,30.12,West,280,3.0,3.9,66,0.00,,---,0.00,VWS V14.01,2013-02-04 04:43:00,
2013-02-03 23:48:00,52.3,41.5,30.12,WNW,283,1.9,4.2,67,0.00,,---,0.00,VWS V14.01,2013-02-04 04:48:00,
2013-02-03 23:53:00,52.5,41.8,30.12,NNW,329,0.6,2.4,67,0.00,,---,0.00,VWS V14.01,2013-02-04 04:53:00,
2013-02-03 23:58:00,51.8,41.2,30.12,NW,322,2.4,4.2,67,0.00,,---,0.00,VWS V14.01,2013-02-04 04:58:00,